< < Back
Terminal Aerodrome Forecast


Current Version              Previous Versions:   1  2  3  4  5  6  7  8  9  

Terminal Aerodrome Forecast

913
FTUS42 KFFC 210500
TAFATL
TAF
KATL 210522Z 2106/2212 09006KT P6SM SCT250
     FM211500 17006KT P6SM FEW050 SCT120
     FM211700 24006KT P6SM FEW050 SCT120
     FM220300 27006KT P6SM SCT050 BKN120=

Latest METAR

408
SAUS70 KWBC 210700 RRH
MTRATL
METAR KATL 210652Z 09003KT 10SM FEW250 14/04 A3016 RMK AO2 SLP208
T01390044 $


USA.gov is the U.S. government's official web portal to all federal, state and local government web resources and services.